sensor_id;sensor_type;location;lat;lon;timestamp;temperature;humidity
15969;DHT22;8085;53.472;9.794;2022-10-18T00:01:08;14.30;99.90
15969;DHT22;8085;53.472;9.794;2022-10-18T00:03:35;14.30;99.90
15969;DHT22;8085;53.472;9.794;2022-10-18T00:06:03;14.40;99.90
15969;DHT22;8085;53.472;9.794;2022-10-18T00:08:31;14.40;99.90
15969;DHT22;8085;53.472;9.794;2022-10-18T00:10:59;14.30;99.90
15969;DHT22;8085;53.472;9.794;2022-10-18T00:13:26;14.30;99.90
15969;DHT22;8085;53.472;9.794;2022-10-18T00:15:55;14.30;99.90
15969;DHT22;8085;53.472;9.794;2022-10-18T00:18:22;14.30;99.90
15969;DHT22;8085;53.472;9.794;2022-10-18T00:20:56;14.30;99.90
15969;DHT22;8085;53.472;9.794;2022-10-18T00:23:24;14.30;99.90
15969;DHT22;8085;53.472;9.794;2022-10-18T00:26:02;14.20;99.90
15969;DHT22;8085;53.472;9.794;2022-10-18T00:28:30;14.20;99.90
15969;DHT22;8085;53.472;9.794;2022-10-18T00:30:57;14.20;99.90
15969;DHT22;8085;53.472;9.794;2022-10-18T00:33:34;14.20;99.90
15969;DHT22;8085;53.472;9.794;2022-10-18T00:36:00;14.10;99.90
15969;DHT22;8085;53.472;9.794;2022-10-18T00:38:27;14.10;99.90
15969;DHT22;8085;53.472;9.794;2022-10-18T00:40:54;14.10;99.90
15969;DHT22;8085;53.472;9.794;2022-10-18T00:43:22;14.10;99.90
15969;DHT22;8085;53.472;9.794;2022-10-18T00:45:49;14.10;99.90
15969;DHT22;8085;53.472;9.794;2022-10-18T00:48:17;14.10;99.90
15969;DHT22;8085;53.472;9.794;2022-10-18T00:50:46;14.10;99.90
15969;DHT22;8085;53.472;9.794;2022-10-18T00:53:17;14.10;99.90
15969;DHT22;8085;53.472;9.794;2022-10-18T00:55:44;14.00;99.90
15969;DHT22;8085;53.472;9.794;2022-10-18T00:58:13;14.10;99.90
15969;DHT22;8085;53.472;9.794;2022-10-18T01:00:41;14.00;99.90
15969;DHT22;8085;53.472;9.794;2022-10-18T01:03:08;14.00;99.90
15969;DHT22;8085;53.472;9.794;2022-10-18T01:05:37;14.00;99.90
15969;DHT22;8085;53.472;9.794;2022-10-18T01:08:26;14.00;99.90
15969;DHT22;8085;53.472;9.794;2022-10-18T01:11:06;13.90;99.90
15969;DHT22;8085;53.472;9.794;2022-10-18T01:13:41;13.90;99.90
15969;DHT22;8085;53.472;9.794;2022-10-18T01:16:18;13.90;99.90
15969;DHT22;8085;53.472;9.794;2022-10-18T01:18:49;13.90;99.90
15969;DHT22;8085;53.472;9.794;2022-10-18T01:21:35;13.90;99.90
15969;DHT22;8085;53.472;9.794;2022-10-18T01:27:46;13.80;99.90
15969;DHT22;8085;53.472;9.794;2022-10-18T01:30:27;13.80;99.90
15969;DHT22;8085;53.472;9.794;2022-10-18T01:33:03;13.80;99.90
15969;DHT22;8085;53.472;9.794;2022-10-18T01:35:33;13.80;99.90
15969;DHT22;8085;53.472;9.794;2022-10-18T01:38:04;13.80;99.90
15969;DHT22;8085;53.472;9.794;2022-10-18T01:40:32;13.80;99.90
15969;DHT22;8085;53.472;9.794;2022-10-18T01:43:00;13.80;99.90
15969;DHT22;8085;53.472;9.794;2022-10-18T01:45:30;13.80;99.90
15969;DHT22;8085;53.472;9.794;2022-10-18T01:48:00;13.80;99.90
15969;DHT22;8085;53.472;9.794;2022-10-18T01:50:28;13.80;99.90
15969;DHT22;8085;53.472;9.794;2022-10-18T01:52:56;13.80;99.90
15969;DHT22;8085;53.472;9.794;2022-10-18T01:55:27;13.80;99.90
15969;DHT22;8085;53.472;9.794;2022-10-18T01:58:02;13.80;99.90
15969;DHT22;8085;53.472;9.794;2022-10-18T02:00:36;13.80;99.90
15969;DHT22;8085;53.472;9.794;2022-10-18T02:03:12;13.70;99.90
15969;DHT22;8085;53.472;9.794;2022-10-18T02:05:45;13.70;99.90
15969;DHT22;8085;53.472;9.794;2022-10-18T02:08:19;13.70;99.90
15969;DHT22;8085;53.472;9.794;2022-10-18T02:10:51;13.70;99.90
15969;DHT22;8085;53.472;9.794;2022-10-18T02:13:21;13.70;99.90
15969;DHT22;8085;53.472;9.794;2022-10-18T02:15:55;13.70;99.90
15969;DHT22;8085;53.472;9.794;2022-10-18T02:18:27;13.60;99.90
15969;DHT22;8085;53.472;9.794;2022-10-18T02:20:55;13.60;99.90
15969;DHT22;8085;53.472;9.794;2022-10-18T02:23:24;13.60;99.90
15969;DHT22;8085;53.472;9.794;2022-10-18T02:25:52;13.60;99.90
15969;DHT22;8085;53.472;9.794;2022-10-18T02:28:19;13.60;99.90
15969;DHT22;8085;53.472;9.794;2022-10-18T02:30:53;13.60;99.90
15969;DHT22;8085;53.472;9.794;2022-10-18T02:33:29;13.60;99.90
15969;DHT22;8085;53.472;9.794;2022-10-18T02:36:01;13.60;99.90
15969;DHT22;8085;53.472;9.794;2022-10-18T02:38:30;13.50;99.90
15969;DHT22;8085;53.472;9.794;2022-10-18T02:40:58;13.50;99.90
15969;DHT22;8085;53.472;9.794;2022-10-18T02:43:25;13.50;99.90
15969;DHT22;8085;53.472;9.794;2022-10-18T02:45:53;13.40;99.90
15969;DHT22;8085;53.472;9.794;2022-10-18T02:48:20;13.40;99.90
15969;DHT22;8085;53.472;9.794;2022-10-18T02:50:47;13.40;99.90
15969;DHT22;8085;53.472;9.794;2022-10-18T02:53:14;13.40;99.90
15969;DHT22;8085;53.472;9.794;2022-10-18T02:55:40;13.30;99.90
15969;DHT22;8085;53.472;9.794;2022-10-18T02:58:07;13.30;99.90
15969;DHT22;8085;53.472;9.794;2022-10-18T03:00:34;13.30;99.90
15969;DHT22;8085;53.472;9.794;2022-10-18T03:03:02;13.30;99.90
15969;DHT22;8085;53.472;9.794;2022-10-18T03:05:29;13.20;99.90
15969;DHT22;8085;53.472;9.794;2022-10-18T03:07:56;13.20;99.90
15969;DHT22;8085;53.472;9.794;2022-10-18T03:10:23;13.20;99.90
15969;DHT22;8085;53.472;9.794;2022-10-18T03:12:49;13.20;99.90
15969;DHT22;8085;53.472;9.794;2022-10-18T03:15:16;13.20;99.90
15969;DHT22;8085;53.472;9.794;2022-10-18T03:17:43;13.20;99.90
15969;DHT22;8085;53.472;9.794;2022-10-18T03:20:11;13.10;99.90
15969;DHT22;8085;53.472;9.794;2022-10-18T03:22:38;13.10;99.90
15969;DHT22;8085;53.472;9.794;2022-10-18T03:25:05;13.10;99.90
15969;DHT22;8085;53.472;9.794;2022-10-18T03:27:32;13.10;99.90
15969;DHT22;8085;53.472;9.794;2022-10-18T03:29:59;13.10;99.90
15969;DHT22;8085;53.472;9.794;2022-10-18T03:32:26;13.10;99.90
15969;DHT22;8085;53.472;9.794;2022-10-18T03:34:52;13.10;99.90
15969;DHT22;8085;53.472;9.794;2022-10-18T03:37:21;13.10;99.90
15969;DHT22;8085;53.472;9.794;2022-10-18T03:39:47;13.10;99.90
15969;DHT22;8085;53.472;9.794;2022-10-18T03:42:14;13.10;99.90
15969;DHT22;8085;53.472;9.794;2022-10-18T03:44:41;13.10;99.90
15969;DHT22;8085;53.472;9.794;2022-10-18T03:47:08;13.00;99.90
15969;DHT22;8085;53.472;9.794;2022-10-18T03:49:34;13.00;99.90
15969;DHT22;8085;53.472;9.794;2022-10-18T03:52:01;13.00;99.90
15969;DHT22;8085;53.472;9.794;2022-10-18T03:54:29;13.10;99.90
15969;DHT22;8085;53.472;9.794;2022-10-18T03:56:56;13.10;99.90
15969;DHT22;8085;53.472;9.794;2022-10-18T03:59:23;13.10;99.90
15969;DHT22;8085;53.472;9.794;2022-10-18T04:01:50;13.00;99.90
15969;DHT22;8085;53.472;9.794;2022-10-18T04:04:17;13.00;99.90
15969;DHT22;8085;53.472;9.794;2022-10-18T04:06:44;13.00;99.90
15969;DHT22;8085;53.472;9.794;2022-10-18T04:09:10;13.10;99.90
15969;DHT22;8085;53.472;9.794;2022-10-18T04:11:39;13.10;99.90
15969;DHT22;8085;53.472;9.794;2022-10-18T04:14:06;13.10;99.90
15969;DHT22;8085;53.472;9.794;2022-10-18T04:16:32;13.10;99.90
15969;DHT22;8085;53.472;9.794;2022-10-18T04:18:59;13.10;99.90
15969;DHT22;8085;53.472;9.794;2022-10-18T04:21:26;13.10;99.90
15969;DHT22;8085;53.472;9.794;2022-10-18T04:23:53;13.10;99.90
15969;DHT22;8085;53.472;9.794;2022-10-18T04:26:19;13.10;99.90
15969;DHT22;8085;53.472;9.794;2022-10-18T04:28:48;13.10;99.90
15969;DHT22;8085;53.472;9.794;2022-10-18T04:31:15;13.10;99.90
15969;DHT22;8085;53.472;9.794;2022-10-18T04:33:42;13.10;99.90
15969;DHT22;8085;53.472;9.794;2022-10-18T04:36:09;13.10;99.90
15969;DHT22;8085;53.472;9.794;2022-10-18T04:38:36;13.10;99.90
15969;DHT22;8085;53.472;9.794;2022-10-18T04:41:02;13.10;99.90
15969;DHT22;8085;53.472;9.794;2022-10-18T04:43:29;13.10;99.90
15969;DHT22;8085;53.472;9.794;2022-10-18T04:45:57;13.10;99.90
15969;DHT22;8085;53.472;9.794;2022-10-18T04:48:24;13.10;99.90
15969;DHT22;8085;53.472;9.794;2022-10-18T04:50:51;13.10;99.90
15969;DHT22;8085;53.472;9.794;2022-10-18T04:53:18;13.10;99.90
15969;DHT22;8085;53.472;9.794;2022-10-18T04:55:46;13.10;99.90
15969;DHT22;8085;53.472;9.794;2022-10-18T04:58:14;13.10;99.90
15969;DHT22;8085;53.472;9.794;2022-10-18T05:00:41;13.10;99.90
15969;DHT22;8085;53.472;9.794;2022-10-18T05:03:11;13.10;99.90
15969;DHT22;8085;53.472;9.794;2022-10-18T05:05:38;13.10;99.90
15969;DHT22;8085;53.472;9.794;2022-10-18T05:08:05;13.10;99.90
15969;DHT22;8085;53.472;9.794;2022-10-18T05:10:32;13.20;99.90
15969;DHT22;8085;53.472;9.794;2022-10-18T05:12:59;13.20;99.90
15969;DHT22;8085;53.472;9.794;2022-10-18T05:15:25;13.20;99.90
15969;DHT22;8085;53.472;9.794;2022-10-18T05:17:52;13.20;99.90
15969;DHT22;8085;53.472;9.794;2022-10-18T05:20:20;13.20;99.90
15969;DHT22;8085;53.472;9.794;2022-10-18T05:22:47;13.20;99.90
15969;DHT22;8085;53.472;9.794;2022-10-18T05:25:14;13.20;99.90
15969;DHT22;8085;53.472;9.794;2022-10-18T05:27:41;13.10;99.90
15969;DHT22;8085;53.472;9.794;2022-10-18T05:30:08;13.20;99.90
15969;DHT22;8085;53.472;9.794;2022-10-18T05:32:35;13.20;99.90
15969;DHT22;8085;53.472;9.794;2022-10-18T05:35:02;13.20;99.90
15969;DHT22;8085;53.472;9.794;2022-10-18T05:37:30;13.20;99.90
15969;DHT22;8085;53.472;9.794;2022-10-18T05:39:57;13.20;99.90
15969;DHT22;8085;53.472;9.794;2022-10-18T05:42:24;13.10;99.90
15969;DHT22;8085;53.472;9.794;2022-10-18T05:44:51;13.20;99.90
15969;DHT22;8085;53.472;9.794;2022-10-18T05:47:17;13.20;99.90
15969;DHT22;8085;53.472;9.794;2022-10-18T05:49:44;13.20;99.90
15969;DHT22;8085;53.472;9.794;2022-10-18T05:52:12;13.20;99.90
15969;DHT22;8085;53.472;9.794;2022-10-18T05:54:40;13.20;99.90
15969;DHT22;8085;53.472;9.794;2022-10-18T05:57:07;13.20;99.90
15969;DHT22;8085;53.472;9.794;2022-10-18T05:59:33;13.20;99.90
15969;DHT22;8085;53.472;9.794;2022-10-18T06:02:00;13.20;99.90
15969;DHT22;8085;53.472;9.794;2022-10-18T06:04:27;13.20;99.90
15969;DHT22;8085;53.472;9.794;2022-10-18T06:06:54;13.20;99.90
15969;DHT22;8085;53.472;9.794;2022-10-18T06:09:21;13.10;99.90
15969;DHT22;8085;53.472;9.794;2022-10-18T06:11:49;13.10;99.90
15969;DHT22;8085;53.472;9.794;2022-10-18T06:14:16;13.10;99.90
15969;DHT22;8085;53.472;9.794;2022-10-18T06:16:43;13.10;99.90
15969;DHT22;8085;53.472;9.794;2022-10-18T06:19:10;13.10;99.90
15969;DHT22;8085;53.472;9.794;2022-10-18T06:21:37;13.10;99.90
15969;DHT22;8085;53.472;9.794;2022-10-18T06:24:04;13.00;99.90
15969;DHT22;8085;53.472;9.794;2022-10-18T06:26:31;13.10;99.90
15969;DHT22;8085;53.472;9.794;2022-10-18T06:28:59;13.00;99.90
15969;DHT22;8085;53.472;9.794;2022-10-18T06:31:26;13.00;99.90
15969;DHT22;8085;53.472;9.794;2022-10-18T06:33:55;13.10;99.90
15969;DHT22;8085;53.472;9.794;2022-10-18T06:36:22;13.00;99.90
15969;DHT22;8085;53.472;9.794;2022-10-18T06:38:49;13.00;99.90
15969;DHT22;8085;53.472;9.794;2022-10-18T06:41:16;13.00;99.90
15969;DHT22;8085;53.472;9.794;2022-10-18T06:43:47;13.10;99.90
15969;DHT22;8085;53.472;9.794;2022-10-18T06:46:15;13.00;99.90
15969;DHT22;8085;53.472;9.794;2022-10-18T06:48:42;13.00;99.90
15969;DHT22;8085;53.472;9.794;2022-10-18T06:51:09;13.00;99.90
15969;DHT22;8085;53.472;9.794;2022-10-18T06:53:37;13.10;99.90
15969;DHT22;8085;53.472;9.794;2022-10-18T06:56:06;13.10;99.90
15969;DHT22;8085;53.472;9.794;2022-10-18T06:58:33;13.10;99.90
15969;DHT22;8085;53.472;9.794;2022-10-18T07:01:05;13.10;99.90
15969;DHT22;8085;53.472;9.794;2022-10-18T07:03:34;13.10;99.90
15969;DHT22;8085;53.472;9.794;2022-10-18T07:06:01;13.10;99.90
15969;DHT22;8085;53.472;9.794;2022-10-18T07:08:29;13.10;99.90
15969;DHT22;8085;53.472;9.794;2022-10-18T07:10:56;13.10;99.90
15969;DHT22;8085;53.472;9.794;2022-10-18T07:13:23;13.10;99.90
15969;DHT22;8085;53.472;9.794;2022-10-18T07:15:59;13.10;99.90
15969;DHT22;8085;53.472;9.794;2022-10-18T07:18:26;13.10;99.90
15969;DHT22;8085;53.472;9.794;2022-10-18T07:20:54;13.20;99.90
15969;DHT22;8085;53.472;9.794;2022-10-18T07:23:21;13.20;99.90
15969;DHT22;8085;53.472;9.794;2022-10-18T07:25:48;13.20;99.90
15969;DHT22;8085;53.472;9.794;2022-10-18T07:28:15;13.20;99.90
15969;DHT22;8085;53.472;9.794;2022-10-18T07:30:42;13.20;99.90
15969;DHT22;8085;53.472;9.794;2022-10-18T07:33:09;13.20;99.90
15969;DHT22;8085;53.472;9.794;2022-10-18T07:35:35;13.20;99.90
15969;DHT22;8085;53.472;9.794;2022-10-18T07:38:04;13.20;99.90
15969;DHT22;8085;53.472;9.794;2022-10-18T07:40:30;13.20;99.90
15969;DHT22;8085;53.472;9.794;2022-10-18T07:42:57;13.20;99.90
15969;DHT22;8085;53.472;9.794;2022-10-18T07:45:24;13.20;99.90
15969;DHT22;8085;53.472;9.794;2022-10-18T07:47:53;13.10;99.90
15969;DHT22;8085;53.472;9.794;2022-10-18T07:50:20;13.10;99.90
15969;DHT22;8085;53.472;9.794;2022-10-18T07:52:47;13.20;99.90
15969;DHT22;8085;53.472;9.794;2022-10-18T07:55:15;13.20;99.90
15969;DHT22;8085;53.472;9.794;2022-10-18T07:57:42;13.20;99.90
15969;DHT22;8085;53.472;9.794;2022-10-18T08:00:10;13.20;99.90
15969;DHT22;8085;53.472;9.794;2022-10-18T08:02:37;13.20;99.90
15969;DHT22;8085;53.472;9.794;2022-10-18T08:05:04;13.10;99.90
15969;DHT22;8085;53.472;9.794;2022-10-18T08:07:31;13.10;99.90
15969;DHT22;8085;53.472;9.794;2022-10-18T08:09:58;13.10;99.90
15969;DHT22;8085;53.472;9.794;2022-10-18T08:12:26;13.10;99.90
15969;DHT22;8085;53.472;9.794;2022-10-18T08:14:53;13.10;99.90
15969;DHT22;8085;53.472;9.794;2022-10-18T08:17:19;13.10;99.90
15969;DHT22;8085;53.472;9.794;2022-10-18T08:19:46;13.10;99.90
15969;DHT22;8085;53.472;9.794;2022-10-18T08:22:13;13.10;99.90
15969;DHT22;8085;53.472;9.794;2022-10-18T08:24:40;13.20;99.90
15969;DHT22;8085;53.472;9.794;2022-10-18T08:27:07;13.20;99.90
15969;DHT22;8085;53.472;9.794;2022-10-18T08:29:35;13.20;99.90
15969;DHT22;8085;53.472;9.794;2022-10-18T08:32:02;13.20;99.90
15969;DHT22;8085;53.472;9.794;2022-10-18T08:34:28;13.20;99.90
15969;DHT22;8085;53.472;9.794;2022-10-18T08:36:55;13.10;99.90
15969;DHT22;8085;53.472;9.794;2022-10-18T08:39:22;13.10;99.90
15969;DHT22;8085;53.472;9.794;2022-10-18T08:42:26;13.10;99.90
15969;DHT22;8085;53.472;9.794;2022-10-18T08:44:57;13.10;99.90
15969;DHT22;8085;53.472;9.794;2022-10-18T08:47:29;13.00;99.90
15969;DHT22;8085;53.472;9.794;2022-10-18T08:50:00;13.00;99.90
15969;DHT22;8085;53.472;9.794;2022-10-18T08:52:32;13.00;99.90
15969;DHT22;8085;53.472;9.794;2022-10-18T08:55:03;12.90;99.90
15969;DHT22;8085;53.472;9.794;2022-10-18T08:57:32;12.90;99.90
15969;DHT22;8085;53.472;9.794;2022-10-18T09:00:07;12.90;99.90
15969;DHT22;8085;53.472;9.794;2022-10-18T09:02:49;12.90;99.90
15969;DHT22;8085;53.472;9.794;2022-10-18T09:05:24;12.90;99.90
15969;DHT22;8085;53.472;9.794;2022-10-18T09:08:14;12.80;99.90
15969;DHT22;8085;53.472;9.794;2022-10-18T09:10:51;12.90;99.90
15969;DHT22;8085;53.472;9.794;2022-10-18T09:13:48;13.00;99.90
15969;DHT22;8085;53.472;9.794;2022-10-18T09:16:23;13.00;99.90
15969;DHT22;8085;53.472;9.794;2022-10-18T09:18:57;13.00;99.90
15969;DHT22;8085;53.472;9.794;2022-10-18T09:21:38;13.00;99.90
15969;DHT22;8085;53.472;9.794;2022-10-18T09:24:11;13.00;99.90
15969;DHT22;8085;53.472;9.794;2022-10-18T09:26:43;13.10;99.90
15969;DHT22;8085;53.472;9.794;2022-10-18T09:29:27;13.00;99.90
15969;DHT22;8085;53.472;9.794;2022-10-18T09:32:06;13.20;99.90
15969;DHT22;8085;53.472;9.794;2022-10-18T09:34:43;13.30;99.90
15969;DHT22;8085;53.472;9.794;2022-10-18T09:37:14;13.40;99.90
15969;DHT22;8085;53.472;9.794;2022-10-18T09:39:41;13.60;99.90
15969;DHT22;8085;53.472;9.794;2022-10-18T09:42:13;13.70;99.90
15969;DHT22;8085;53.472;9.794;2022-10-18T09:44:45;13.90;99.90
15969;DHT22;8085;53.472;9.794;2022-10-18T09:47:18;13.80;99.90
15969;DHT22;8085;53.472;9.794;2022-10-18T09:49:50;13.90;99.90
15969;DHT22;8085;53.472;9.794;2022-10-18T09:52:22;13.80;99.90
15969;DHT22;8085;53.472;9.794;2022-10-18T09:54:53;13.80;99.90
15969;DHT22;8085;53.472;9.794;2022-10-18T09:57:25;13.90;99.90
15969;DHT22;8085;53.472;9.794;2022-10-18T09:59:53;14.00;99.90
15969;DHT22;8085;53.472;9.794;2022-10-18T10:02:22;14.10;99.90
15969;DHT22;8085;53.472;9.794;2022-10-18T10:04:49;14.10;99.90
15969;DHT22;8085;53.472;9.794;2022-10-18T10:07:18;14.30;99.90
15969;DHT22;8085;53.472;9.794;2022-10-18T10:09:47;14.20;99.90
15969;DHT22;8085;53.472;9.794;2022-10-18T10:12:29;14.30;99.90
15969;DHT22;8085;53.472;9.794;2022-10-18T10:15:07;14.40;99.90
15969;DHT22;8085;53.472;9.794;2022-10-18T10:17:36;14.50;99.90
15969;DHT22;8085;53.472;9.794;2022-10-18T10:20:13;14.50;99.90
15969;DHT22;8085;53.472;9.794;2022-10-18T10:22:41;14.70;99.90
15969;DHT22;8085;53.472;9.794;2022-10-18T10:25:19;14.80;99.90
15969;DHT22;8085;53.472;9.794;2022-10-18T10:27:46;15.00;99.90
15969;DHT22;8085;53.472;9.794;2022-10-18T10:30:32;15.00;99.90
15969;DHT22;8085;53.472;9.794;2022-10-18T10:33:01;15.00;99.90
15969;DHT22;8085;53.472;9.794;2022-10-18T10:35:30;15.00;99.90
15969;DHT22;8085;53.472;9.794;2022-10-18T10:37:57;15.00;99.90
15969;DHT22;8085;53.472;9.794;2022-10-18T10:40:25;15.30;99.90
15969;DHT22;8085;53.472;9.794;2022-10-18T10:43:12;15.10;99.90
15969;DHT22;8085;53.472;9.794;2022-10-18T10:45:54;14.90;99.90
15969;DHT22;8085;53.472;9.794;2022-10-18T10:48:24;15.20;99.90
15969;DHT22;8085;53.472;9.794;2022-10-18T10:50:54;15.50;99.90
15969;DHT22;8085;53.472;9.794;2022-10-18T10:53:27;15.40;99.90
15969;DHT22;8085;53.472;9.794;2022-10-18T10:55:56;15.20;99.90
15969;DHT22;8085;53.472;9.794;2022-10-18T10:58:26;15.20;99.90
15969;DHT22;8085;53.472;9.794;2022-10-18T11:00:55;15.20;99.90
15969;DHT22;8085;53.472;9.794;2022-10-18T11:03:23;15.30;99.90
15969;DHT22;8085;53.472;9.794;2022-10-18T11:05:52;15.40;99.90
15969;DHT22;8085;53.472;9.794;2022-10-18T11:08:22;15.60;99.90
15969;DHT22;8085;53.472;9.794;2022-10-18T11:10:59;15.80;99.90
15969;DHT22;8085;53.472;9.794;2022-10-18T11:13:40;15.90;98.10
15969;DHT22;8085;53.472;9.794;2022-10-18T11:16:13;16.20;95.30
15969;DHT22;8085;53.472;9.794;2022-10-18T11:18:45;16.40;93.30
15969;DHT22;8085;53.472;9.794;2022-10-18T11:21:15;16.90;76.50
15969;DHT22;8085;53.472;9.794;2022-10-18T11:23:43;16.60;81.50
15969;DHT22;8085;53.472;9.794;2022-10-18T11:26:29;16.50;77.60
15969;DHT22;8085;53.472;9.794;2022-10-18T11:32:05;16.00;88.80
15969;DHT22;8085;53.472;9.794;2022-10-18T11:34:51;16.10;83.10
15969;DHT22;8085;53.472;9.794;2022-10-18T11:37:43;15.60;93.90
15969;DHT22;8085;53.472;9.794;2022-10-18T11:43:09;15.50;95.30
15969;DHT22;8085;53.472;9.794;2022-10-18T11:45:43;15.70;92.80
15969;DHT22;8085;53.472;9.794;2022-10-18T11:48:25;16.20;92.50
15969;DHT22;8085;53.472;9.794;2022-10-18T11:51:03;16.50;60.50
15969;DHT22;8085;53.472;9.794;2022-10-18T11:53:41;15.70;80.70
15969;DHT22;8085;53.472;9.794;2022-10-18T11:56:14;15.30;88.40
15969;DHT22;8085;53.472;9.794;2022-10-18T11:59:00;15.60;88.10
15969;DHT22;8085;53.472;9.794;2022-10-18T12:01:35;16.20;79.60
15969;DHT22;8085;53.472;9.794;2022-10-18T12:04:07;16.30;57.30
15969;DHT22;8085;53.472;9.794;2022-10-18T12:06:40;16.40;47.10
15969;DHT22;8085;53.472;9.794;2022-10-18T12:09:16;16.30;43.20
15969;DHT22;8085;53.472;9.794;2022-10-18T12:11:46;16.50;42.20
15969;DHT22;8085;53.472;9.794;2022-10-18T12:14:23;16.60;14.60
15969;DHT22;8085;53.472;9.794;2022-10-18T12:16:51;16.50;1.00
15969;DHT22;8085;53.472;9.794;2022-10-18T12:19:21;16.30;1.00
15969;DHT22;8085;53.472;9.794;2022-10-18T12:21:54;16.30;1.00
15969;DHT22;8085;53.472;9.794;2022-10-18T12:24:25;16.20;1.00
15969;DHT22;8085;53.472;9.794;2022-10-18T12:26:56;16.10;1.00
15969;DHT22;8085;53.472;9.794;2022-10-18T12:29:28;15.90;1.00
15969;DHT22;8085;53.472;9.794;2022-10-18T12:31:59;16.00;1.00
15969;DHT22;8085;53.472;9.794;2022-10-18T12:34:32;15.80;1.00
15969;DHT22;8085;53.472;9.794;2022-10-18T12:37:24;15.60;1.00
15969;DHT22;8085;53.472;9.794;2022-10-18T12:39:55;15.60;1.00
15969;DHT22;8085;53.472;9.794;2022-10-18T12:42:25;15.50;1.00
15969;DHT22;8085;53.472;9.794;2022-10-18T12:45:00;15.50;1.00
15969;DHT22;8085;53.472;9.794;2022-10-18T12:47:28;15.30;1.00
15969;DHT22;8085;53.472;9.794;2022-10-18T12:49:57;15.10;1.00
15969;DHT22;8085;53.472;9.794;2022-10-18T12:52:27;15.20;1.00
15969;DHT22;8085;53.472;9.794;2022-10-18T12:55:26;15.50;1.00
15969;DHT22;8085;53.472;9.794;2022-10-18T12:58:05;15.80;1.00
15969;DHT22;8085;53.472;9.794;2022-10-18T13:00:57;15.80;1.00
15969;DHT22;8085;53.472;9.794;2022-10-18T13:06:20;15.90;1.00
15969;DHT22;8085;53.472;9.794;2022-10-18T13:09:14;16.00;1.00
15969;DHT22;8085;53.472;9.794;2022-10-18T13:11:42;15.80;1.00
15969;DHT22;8085;53.472;9.794;2022-10-18T13:14:43;15.70;1.00
15969;DHT22;8085;53.472;9.794;2022-10-18T13:17:22;15.40;1.00
15969;DHT22;8085;53.472;9.794;2022-10-18T13:19:59;15.20;1.00
15969;DHT22;8085;53.472;9.794;2022-10-18T13:22:47;15.20;1.00
15969;DHT22;8085;53.472;9.794;2022-10-18T13:25:22;15.40;1.00
15969;DHT22;8085;53.472;9.794;2022-10-18T13:27:54;15.60;1.00
15969;DHT22;8085;53.472;9.794;2022-10-18T13:30:37;15.70;1.00
15969;DHT22;8085;53.472;9.794;2022-10-18T13:33:21;15.50;1.00
15969;DHT22;8085;53.472;9.794;2022-10-18T13:35:53;15.30;1.00
15969;DHT22;8085;53.472;9.794;2022-10-18T13:38:35;15.20;1.00
15969;DHT22;8085;53.472;9.794;2022-10-18T13:41:05;15.30;1.00
15969;DHT22;8085;53.472;9.794;2022-10-18T13:43:58;15.50;1.00
15969;DHT22;8085;53.472;9.794;2022-10-18T13:49:57;15.70;1.00
15969;DHT22;8085;53.472;9.794;2022-10-18T13:52:41;15.50;1.00
15969;DHT22;8085;53.472;9.794;2022-10-18T13:55:28;15.40;1.00
15969;DHT22;8085;53.472;9.794;2022-10-18T13:58:06;15.20;1.00
15969;DHT22;8085;53.472;9.794;2022-10-18T14:00:48;15.20;1.00
15969;DHT22;8085;53.472;9.794;2022-10-18T14:06:15;15.00;1.00
15969;DHT22;8085;53.472;9.794;2022-10-18T14:08:48;14.90;1.00
15969;DHT22;8085;53.472;9.794;2022-10-18T14:11:23;14.90;1.00
15969;DHT22;8085;53.472;9.794;2022-10-18T14:13:56;14.90;1.00
15969;DHT22;8085;53.472;9.794;2022-10-18T14:16:31;14.90;1.00
15969;DHT22;8085;53.472;9.794;2022-10-18T14:19:07;14.90;1.00
15969;DHT22;8085;53.472;9.794;2022-10-18T14:21:40;15.00;1.00
15969;DHT22;8085;53.472;9.794;2022-10-18T14:24:16;15.30;1.00
15969;DHT22;8085;53.472;9.794;2022-10-18T14:26:44;15.30;1.00
15969;DHT22;8085;53.472;9.794;2022-10-18T14:29:18;15.40;1.00
15969;DHT22;8085;53.472;9.794;2022-10-18T14:31:51;15.40;1.00
15969;DHT22;8085;53.472;9.794;2022-10-18T14:34:18;15.30;1.00
15969;DHT22;8085;53.472;9.794;2022-10-18T14:36:47;15.30;1.00
15969;DHT22;8085;53.472;9.794;2022-10-18T14:39:18;15.30;1.00
15969;DHT22;8085;53.472;9.794;2022-10-18T14:41:50;15.40;1.00
15969;DHT22;8085;53.472;9.794;2022-10-18T14:44:20;15.40;1.00
15969;DHT22;8085;53.472;9.794;2022-10-18T14:46:49;15.40;1.00
15969;DHT22;8085;53.472;9.794;2022-10-18T14:49:18;15.30;1.00
15969;DHT22;8085;53.472;9.794;2022-10-18T14:51:47;15.20;1.00
15969;DHT22;8085;53.472;9.794;2022-10-18T14:54:18;15.20;1.00
15969;DHT22;8085;53.472;9.794;2022-10-18T14:56:45;15.10;1.00
15969;DHT22;8085;53.472;9.794;2022-10-18T14:59:19;14.90;1.00
15969;DHT22;8085;53.472;9.794;2022-10-18T15:01:57;14.90;1.00
15969;DHT22;8085;53.472;9.794;2022-10-18T15:04:25;14.80;1.00
15969;DHT22;8085;53.472;9.794;2022-10-18T15:06:58;14.70;1.00
15969;DHT22;8085;53.472;9.794;2022-10-18T15:09:26;14.70;1.00
15969;DHT22;8085;53.472;9.794;2022-10-18T15:11:53;14.70;5.70
15969;DHT22;8085;53.472;9.794;2022-10-18T15:14:25;14.80;19.90
15969;DHT22;8085;53.472;9.794;2022-10-18T15:16:57;14.90;17.70
15969;DHT22;8085;53.472;9.794;2022-10-18T15:19:30;14.90;18.60
15969;DHT22;8085;53.472;9.794;2022-10-18T15:21:58;14.80;18.40
15969;DHT22;8085;53.472;9.794;2022-10-18T15:24:31;14.80;23.30
15969;DHT22;8085;53.472;9.794;2022-10-18T15:27:11;14.70;21.30
15969;DHT22;8085;53.472;9.794;2022-10-18T15:29:40;14.70;16.10
15969;DHT22;8085;53.472;9.794;2022-10-18T15:32:19;14.70;10.20
15969;DHT22;8085;53.472;9.794;2022-10-18T15:34:47;14.60;20.30
15969;DHT22;8085;53.472;9.794;2022-10-18T15:37:28;14.50;18.50
15969;DHT22;8085;53.472;9.794;2022-10-18T15:43:00;14.40;24.40
15969;DHT22;8085;53.472;9.794;2022-10-18T15:45:32;14.30;31.50
15969;DHT22;8085;53.472;9.794;2022-10-18T15:48:16;14.30;38.80
15969;DHT22;8085;53.472;9.794;2022-10-18T15:50:45;14.20;28.00
15969;DHT22;8085;53.472;9.794;2022-10-18T15:53:34;14.10;37.60
15969;DHT22;8085;53.472;9.794;2022-10-18T15:56:04;14.00;41.40
15969;DHT22;8085;53.472;9.794;2022-10-18T15:58:38;13.90;43.60
15969;DHT22;8085;53.472;9.794;2022-10-18T16:01:13;13.90;49.70
15969;DHT22;8085;53.472;9.794;2022-10-18T16:03:42;13.80;47.90
15969;DHT22;8085;53.472;9.794;2022-10-18T16:06:10;13.70;57.20
15969;DHT22;8085;53.472;9.794;2022-10-18T16:08:39;13.70;52.00
15969;DHT22;8085;53.472;9.794;2022-10-18T16:11:08;13.70;52.10
15969;DHT22;8085;53.472;9.794;2022-10-18T16:13:38;13.70;55.40
15969;DHT22;8085;53.472;9.794;2022-10-18T16:16:08;13.70;50.40
15969;DHT22;8085;53.472;9.794;2022-10-18T16:18:35;13.70;52.60
15969;DHT22;8085;53.472;9.794;2022-10-18T16:21:02;13.80;50.30
15969;DHT22;8085;53.472;9.794;2022-10-18T16:23:29;13.70;51.40
15969;DHT22;8085;53.472;9.794;2022-10-18T16:25:56;13.80;55.10
15969;DHT22;8085;53.472;9.794;2022-10-18T16:28:24;13.70;56.70
15969;DHT22;8085;53.472;9.794;2022-10-18T16:30:55;13.70;59.40
15969;DHT22;8085;53.472;9.794;2022-10-18T16:33:24;13.70;67.30
15969;DHT22;8085;53.472;9.794;2022-10-18T16:35:51;13.60;75.50